createdAt,value
2019-05-29T00:01:45.724Z,8.60
2019-05-29T00:06:52.889Z,8.50
2019-05-29T00:12:00.115Z,8.50
2019-05-29T00:17:08.485Z,8.50
2019-05-29T00:22:15.671Z,8.30
2019-05-29T00:27:23.775Z,8.30
2019-05-29T00:32:31.028Z,8.20
2019-05-29T00:37:38.304Z,8.20
2019-05-29T00:42:45.507Z,8.10
2019-05-29T00:47:52.845Z,8.10
2019-05-29T00:52:59.953Z,8.10
2019-05-29T00:58:07.271Z,8.00
2019-05-29T01:03:15.771Z,7.90
2019-05-29T01:08:22.972Z,7.90
2019-05-29T01:13:30.116Z,7.90
2019-05-29T01:18:37.317Z,7.80
2019-05-29T01:23:44.547Z,7.80
2019-05-29T01:28:51.847Z,7.80
2019-05-29T01:33:59.145Z,7.80
2019-05-29T01:39:08.476Z,7.90
2019-05-29T01:44:15.759Z,7.90
2019-05-29T01:49:23.818Z,7.90
2019-05-29T01:54:31.084Z,7.90
2019-05-29T01:59:39.485Z,7.80
2019-05-29T02:04:47.009Z,7.70
2019-05-29T02:09:54.575Z,7.60
2019-05-29T02:15:01.791Z,7.60
2019-05-29T02:20:10.572Z,7.60
2019-05-29T02:25:19.674Z,7.50
2019-05-29T02:30:30.513Z,7.60
2019-05-29T02:35:36.413Z,7.60
2019-05-29T02:40:43.463Z,7.60
2019-05-29T02:45:54.607Z,7.60
2019-05-29T02:50:59.403Z,7.60
2019-05-29T02:56:06.466Z,7.60
2019-05-29T03:01:15.807Z,7.70
2019-05-29T03:06:24.055Z,7.60
2019-05-29T03:11:33.005Z,7.70
2019-05-29T03:16:40.079Z,7.70
2019-05-29T03:21:47.479Z,7.70
2019-05-29T03:26:54.543Z,7.70
2019-05-29T03:32:01.718Z,7.70
2019-05-29T03:37:08.782Z,7.80
2019-05-29T03:42:15.942Z,7.80
2019-05-29T03:47:23.067Z,7.80
2019-05-29T03:52:30.390Z,7.70
2019-05-29T03:57:38.352Z,7.90
2019-05-29T04:02:45.543Z,7.90
2019-05-29T04:07:52.893Z,7.90
2019-05-29T04:13:01.793Z,8.10
2019-05-29T04:18:09.258Z,8.40
2019-05-29T04:23:19.222Z,8.70
2019-05-29T04:28:27.894Z,9.00
2019-05-29T04:33:36.807Z,9.40
2019-05-29T04:38:44.714Z,9.60
2019-05-29T04:43:51.880Z,9.50
2019-05-29T04:48:59.116Z,9.40
2019-05-29T04:54:06.265Z,9.40
2019-05-29T04:59:13.330Z,9.60
2019-05-29T05:04:20.512Z,10.00
2019-05-29T05:09:27.754Z,10.30
2019-05-29T05:14:35.639Z,10.50
2019-05-29T05:19:43.831Z,10.70
2019-05-29T05:24:51.328Z,10.80
2019-05-29T05:29:58.703Z,11.00
2019-05-29T05:35:06.359Z,11.00
2019-05-29T05:40:14.154Z,11.10
2019-05-29T05:45:21.417Z,11.30
2019-05-29T05:50:28.656Z,11.50
2019-05-29T05:55:35.738Z,11.50
2019-05-29T06:00:42.829Z,11.70
2019-05-29T06:05:49.929Z,12.00
2019-05-29T06:10:57.432Z,12.20
2019-05-29T06:16:04.684Z,11.90
2019-05-29T06:21:12.000Z,11.70
2019-05-29T06:26:19.236Z,11.50
2019-05-29T06:31:27.322Z,11.50
2019-05-29T06:36:35.449Z,11.30
2019-05-29T06:41:44.236Z,11.60
2019-05-29T06:46:51.798Z,12.10
2019-05-29T06:51:59.119Z,12.50
2019-05-29T06:57:06.420Z,13.10
2019-05-29T07:02:13.542Z,13.00
2019-05-29T07:07:21.031Z,12.90
2019-05-29T07:12:28.271Z,13.30
2019-05-29T07:17:36.298Z,13.90
2019-05-29T07:22:44.946Z,13.80
2019-05-29T07:27:53.347Z,13.80
2019-05-29T07:33:00.517Z,13.80
2019-05-29T07:38:07.694Z,13.90
2019-05-29T07:43:14.895Z,14.20
2019-05-29T07:48:22.052Z,14.80
2019-05-29T07:53:29.184Z,14.70
2019-05-29T07:58:36.426Z,13.90
2019-05-29T08:03:43.634Z,14.20
2019-05-29T08:08:50.960Z,14.70
2019-05-29T08:13:58.238Z,14.70
2019-05-29T08:19:08.030Z,14.40
2019-05-29T08:24:15.038Z,14.10
2019-05-29T08:29:22.456Z,14.20
2019-05-29T08:34:29.691Z,15.00
2019-05-29T08:39:38.016Z,15.10
2019-05-29T08:44:45.592Z,15.60
2019-05-29T08:49:54.472Z,15.70
2019-05-29T08:55:01.588Z,14.60
2019-05-29T09:00:10.926Z,14.50
2019-05-29T09:05:18.193Z,14.70
2019-05-29T09:10:25.419Z,15.50
2019-05-29T09:15:33.738Z,16.40
2019-05-29T09:21:01.198Z,16.90
2019-05-29T09:25:49.686Z,16.10
2019-05-29T09:30:56.892Z,15.90
2019-05-29T09:36:04.031Z,15.50
2019-05-29T09:41:11.789Z,16.10
2019-05-29T09:46:20.219Z,16.70
2019-05-29T09:51:28.156Z,16.90
2019-05-29T09:56:35.278Z,16.80
2019-05-29T10:01:42.507Z,16.80
2019-05-29T10:06:49.569Z,17.20
2019-05-29T10:12:00.130Z,17.60
2019-05-29T10:17:11.294Z,17.60
2019-05-29T10:22:14.962Z,17.00
2019-05-29T10:27:22.196Z,16.70
2019-05-29T10:32:29.409Z,16.20
2019-05-29T10:37:36.643Z,16.30
2019-05-29T10:42:45.081Z,17.00
2019-05-29T10:47:54.080Z,17.40
2019-05-29T10:53:01.509Z,17.40
2019-05-29T10:58:09.599Z,17.50
2019-05-29T11:03:16.731Z,17.40
2019-05-29T11:08:23.968Z,18.00
2019-05-29T11:13:32.544Z,17.70
2019-05-29T11:18:40.650Z,17.80
2019-05-29T11:23:48.117Z,17.90
2019-05-29T11:28:56.504Z,18.10
2019-05-29T11:34:03.923Z,18.70
2019-05-29T11:39:11.204Z,19.00
2019-05-29T11:44:18.407Z,19.10
2019-05-29T11:49:25.807Z,19.10
2019-05-29T11:54:33.004Z,19.10
2019-05-29T11:59:40.142Z,19.50
2019-05-29T12:04:47.245Z,20.10
2019-05-29T12:09:55.373Z,19.30
2019-05-29T12:15:12.116Z,18.70
2019-05-29T12:20:26.790Z,19.40
2019-05-29T12:25:21.306Z,19.70
2019-05-29T12:30:28.736Z,20.20
2019-05-29T12:35:36.034Z,21.60
2019-05-29T12:40:43.177Z,22.60
2019-05-29T12:45:50.397Z,23.40
2019-05-29T12:50:58.235Z,24.80
2019-05-29T12:56:06.918Z,25.50
2019-05-29T13:01:14.047Z,25.40
2019-05-29T13:06:21.401Z,25.70
2019-05-29T13:11:28.487Z,25.70
2019-05-29T13:16:35.611Z,24.50
2019-05-29T13:21:42.733Z,24.30
2019-05-29T13:26:49.826Z,24.10
2019-05-29T13:31:58.051Z,24.70
2019-05-29T13:37:08.099Z,25.20
2019-05-29T13:42:14.459Z,25.10
2019-05-29T13:47:21.594Z,25.10
2019-05-29T13:52:28.712Z,25.20
2019-05-29T13:57:38.972Z,25.20
2019-05-29T14:02:44.875Z,25.10
2019-05-29T14:07:51.979Z,23.90
2019-05-29T14:12:59.110Z,24.70
2019-05-29T14:18:07.014Z,25.70
2019-05-29T14:23:14.552Z,25.80
2019-05-29T14:28:21.657Z,26.00
2019-05-29T14:33:28.736Z,27.20
2019-05-29T14:38:35.815Z,27.20
2019-05-29T14:43:44.000Z,26.40
2019-05-29T14:48:51.305Z,25.20
2019-05-29T14:53:58.527Z,24.20
2019-05-29T14:59:07.475Z,25.50
2019-05-29T15:04:14.813Z,25.70
2019-05-29T15:09:23.115Z,26.20
2019-05-29T15:14:30.584Z,27.00
2019-05-29T15:19:37.686Z,26.10
2019-05-29T15:24:59.691Z,25.40
2019-05-29T15:29:53.599Z,25.00
2019-05-29T15:35:01.711Z,24.10
2019-05-29T15:40:11.117Z,22.90
2019-05-29T15:45:18.386Z,22.20
2019-05-29T15:50:25.474Z,22.40
2019-05-29T15:55:34.875Z,23.10
2019-05-29T16:00:41.519Z,23.30
2019-05-29T16:05:48.686Z,22.80
2019-05-29T16:10:55.862Z,22.50
2019-05-29T16:16:03.011Z,21.60
2019-05-29T16:21:10.594Z,20.80
2019-05-29T16:26:20.042Z,20.50
2019-05-29T16:31:27.820Z,20.00
2019-05-29T16:36:35.001Z,19.50
2019-05-29T16:41:42.407Z,19.80
2019-05-29T16:46:49.386Z,19.90
2019-05-29T16:51:56.580Z,19.70
2019-05-29T16:57:03.662Z,18.80
2019-05-29T17:02:11.287Z,18.10
2019-05-29T17:07:18.438Z,17.90
2019-05-29T17:12:25.616Z,17.60
2019-05-29T17:17:32.669Z,17.40
2019-05-29T17:22:39.636Z,17.10
2019-05-29T17:27:46.873Z,16.70
2019-05-29T17:32:55.421Z,16.40
2019-05-29T17:38:03.675Z,16.20
2019-05-29T17:43:10.939Z,16.10
2019-05-29T17:48:18.052Z,16.00
2019-05-29T17:53:26.206Z,15.50
2019-05-29T17:58:34.675Z,15.20
2019-05-29T18:03:41.887Z,14.40
2019-05-29T18:08:49.426Z,13.70
2019-05-29T18:13:56.602Z,13.20
2019-05-29T18:19:03.718Z,12.80
2019-05-29T18:24:11.803Z,12.60
2019-05-29T18:29:20.108Z,12.40
2019-05-29T18:34:27.363Z,12.10
2019-05-29T18:39:34.409Z,11.90
2019-05-29T18:44:41.610Z,11.70
2019-05-29T18:49:48.844Z,11.50
2019-05-29T18:54:56.060Z,11.20
2019-05-29T19:00:03.371Z,10.90
2019-05-29T19:05:13.370Z,10.70
2019-05-29T19:10:21.785Z,10.50
2019-05-29T19:15:29.961Z,10.20
2019-05-29T19:20:37.203Z,9.90
2019-05-29T19:25:45.110Z,9.60
2019-05-29T19:30:52.309Z,9.30
2019-05-29T19:35:59.934Z,8.90
2019-05-29T19:41:06.921Z,8.70
2019-05-29T19:46:14.024Z,8.50
2019-05-29T19:51:22.322Z,8.30
2019-05-29T19:56:29.638Z,8.00
2019-05-29T20:01:40.332Z,7.90
2019-05-29T20:06:46.065Z,7.60
2019-05-29T20:11:53.158Z,7.40
2019-05-29T20:17:00.213Z,7.30
2019-05-29T20:22:08.019Z,7.20
2019-05-29T20:27:15.090Z,7.00
2019-05-29T20:32:22.103Z,6.90
2019-05-29T20:37:30.022Z,6.70
2019-05-29T20:42:38.343Z,6.60
2019-05-29T20:47:45.713Z,6.50
2019-05-29T20:52:52.873Z,6.40
2019-05-29T20:57:59.942Z,6.20
2019-05-29T21:03:07.145Z,6.00
2019-05-29T21:08:14.701Z,5.90
2019-05-29T21:13:22.023Z,6.00
2019-05-29T21:18:29.513Z,6.00
2019-05-29T21:23:36.588Z,6.00
2019-05-29T21:28:48.763Z,5.90
2019-05-29T21:33:52.403Z,5.70
2019-05-29T21:38:59.842Z,5.60
2019-05-29T21:44:07.009Z,5.50
2019-05-29T21:49:14.092Z,5.50
2019-05-29T21:54:21.047Z,5.40
2019-05-29T21:59:28.116Z,5.30
2019-05-29T22:04:35.276Z,5.20
2019-05-29T22:09:42.422Z,5.10
2019-05-29T22:14:50.747Z,5.00
2019-05-29T22:19:59.047Z,4.90
2019-05-29T22:25:06.786Z,4.80
2019-05-29T22:30:14.147Z,4.70
2019-05-29T22:35:21.649Z,4.60
2019-05-29T22:40:28.828Z,4.60
2019-05-29T22:45:35.891Z,4.40
2019-05-29T22:50:44.037Z,4.30
2019-05-29T22:55:51.640Z,4.40
2019-05-29T23:00:58.739Z,4.30
2019-05-29T23:06:05.896Z,4.20
2019-05-29T23:11:12.969Z,4.10
2019-05-29T23:16:20.002Z,4.00
2019-05-29T23:21:27.058Z,3.90
2019-05-29T23:26:35.224Z,3.80
2019-05-29T23:31:43.290Z,3.70
2019-05-29T23:36:51.459Z,3.60
2019-05-29T23:41:59.403Z,3.50
2019-05-29T23:47:06.444Z,3.60
2019-05-29T23:52:13.570Z,3.50
2019-05-29T23:57:20.641Z,3.50
